Terminal Aerodrome Forecast
Issued by NWS Twin Cities, MN

Home | Current Version | Previous Version | Text Only | Print | Product List | Glossary On
Versions: 1 2 3 4 5 6 7 8 9 10 11 12 13 14 15 16 17 18
000
FTUS43 KMPX 301700
TAFSTC
TAF
KSTC 301724Z 3018/0118 12008G15KT P6SM SCT015 BKN150
     FM010000 12012KT P6SM VCSH SCT015 OVC050
      TEMPO 0102/0105 6SM -SHRA BR OVC015
     FM010800 13013KT 6SM BR VCSH OVC007
     FM011000 16006KT 4SM BR OVC004
     FM011700 19009KT P6SM OVC015=

USA.gov is the U.S. government's official web portal to all federal, state and local government web resources and services.